createdAt,value
2023-05-02T00:01:26.760Z,396.94118
2023-05-02T00:06:28.123Z,384
2023-05-02T00:11:29.582Z,387.16547
2023-05-02T00:16:30.825Z,396.94118
2023-05-02T00:21:32.372Z,393.63504
2023-05-02T00:26:33.663Z,393.63504
2023-05-02T00:31:35.056Z,390.37681
2023-05-02T00:36:36.478Z,384
2023-05-02T00:41:37.842Z,390.37681
2023-05-02T00:46:39.166Z,396.94118
2023-05-02T00:51:40.613Z,400.2963
2023-05-02T00:56:42.198Z,396.94118
2023-05-02T01:01:43.819Z,407.15789
2023-05-02T01:06:45.572Z,400.2963
2023-05-02T01:11:47.185Z,393.63504
2023-05-02T01:16:48.691Z,390.37681
2023-05-02T01:21:50.223Z,390.37681
2023-05-02T01:26:51.502Z,387.16547
2023-05-02T01:31:53.071Z,380.87943
2023-05-02T01:36:54.527Z,387.16547
2023-05-02T01:41:56.134Z,387.16547
2023-05-02T01:46:57.805Z,393.63504
2023-05-02T01:51:59.441Z,384
2023-05-02T01:57:01.042Z,377.80282
2023-05-02T02:02:02.601Z,368.82759
2023-05-02T02:07:04.157Z,363.04762
2023-05-02T02:12:05.668Z,363.04762
2023-05-02T02:17:07.250Z,360.21622
2023-05-02T02:22:08.843Z,363.04762
2023-05-02T02:27:10.234Z,354.66667
2023-05-02T02:32:11.635Z,341.41935
2023-05-02T02:37:13.156Z,331.42138
2023-05-02T02:42:14.701Z,317.33333
2023-05-02T02:47:16.371Z,308.49704
2023-05-02T02:52:18.110Z,294
2023-05-02T02:57:19.656Z,286.22222
2023-05-02T03:02:21.147Z,276.97297
2023-05-02T03:07:22.634Z,275.1828
2023-05-02T03:12:23.968Z,276.97297
2023-05-02T03:17:26.295Z,280.61202
2023-05-02T03:22:27.801Z,271.65957
2023-05-02T03:27:29.053Z,263.17098
2023-05-02T03:32:30.435Z,256.69036
2023-05-02T03:37:32.073Z,263.17098
2023-05-02T03:42:33.296Z,252
2023-05-02T03:47:34.592Z,245.96078
2023-05-02T03:52:36.054Z,248.9505
2023-05-02T03:57:37.293Z,248.9505
2023-05-02T04:02:38.849Z,253.54774
2023-05-02T04:07:40.541Z,259.89744
2023-05-02T04:12:42.163Z,276.97297
2023-05-02T04:17:43.787Z,296
2023-05-02T04:22:45.476Z,290.06742
2023-05-02T04:27:47.033Z,294
2023-05-02T04:32:48.613Z,292.0226
2023-05-02T04:37:49.918Z,296
2023-05-02T04:42:51.207Z,294
2023-05-02T04:47:52.761Z,296
2023-05-02T04:52:54.425Z,298.02299
2023-05-02T04:57:56.000Z,294
2023-05-02T05:02:59.190Z,278.78261
2023-05-02T05:08:02.500Z,275.1828
2023-05-02T05:13:04.099Z,282.46154
2023-05-02T05:18:05.724Z,290.06742
2023-05-02T05:23:07.412Z,290.06742
2023-05-02T05:28:08.988Z,294
2023-05-02T05:33:10.613Z,290.06742
2023-05-02T05:38:12.331Z,280.61202
2023-05-02T05:43:13.912Z,273.41176
2023-05-02T05:48:15.532Z,268.21053
2023-05-02T05:53:17.194Z,275.1828
2023-05-02T05:58:18.804Z,271.65957
2023-05-02T06:03:20.432Z,271.65957
2023-05-02T06:08:22.148Z,280.61202
2023-05-02T06:13:23.730Z,292.0226
2023-05-02T06:18:25.053Z,292.0226
2023-05-02T06:23:26.556Z,324.24691
2023-05-02T06:28:27.914Z,324.24691
2023-05-02T06:33:29.176Z,333.87342
2023-05-02T06:38:30.529Z,341.41935
2023-05-02T06:43:31.847Z,349.26316
2023-05-02T06:48:33.277Z,365.91781
2023-05-02T06:53:34.798Z,371.77778
2023-05-02T06:58:36.148Z,396.94118
2023-05-02T07:03:37.480Z,407.15789
2023-05-02T07:08:38.932Z,410.66667
2023-05-02T07:13:40.308Z,417.84615
2023-05-02T07:18:41.766Z,429.03937
2023-05-02T07:23:43.292Z,440.77419
2023-05-02T07:28:44.770Z,453.09091
2023-05-02T07:33:46.233Z,444.81301
2023-05-02T07:38:47.860Z,436.8
2023-05-02T07:43:49.310Z,425.25
2023-05-02T07:48:50.768Z,436.8
2023-05-02T07:53:52.222Z,453.09091
2023-05-02T07:58:53.696Z,457.33333
2023-05-02T08:03:55.472Z,457.33333
2023-05-02T08:08:57.257Z,444.81301
2023-05-02T08:13:58.840Z,461.64706
2023-05-02T08:19:00.430Z,444.81301
2023-05-02T08:24:02.015Z,457.33333
2023-05-02T08:29:03.625Z,461.64706
2023-05-02T08:34:05.207Z,461.64706
2023-05-02T08:39:06.824Z,461.64706
2023-05-02T08:44:08.510Z,461.64706
2023-05-02T08:49:10.057Z,466.0339
2023-05-02T08:54:11.818Z,479.65217
2023-05-02T08:59:13.379Z,494
2023-05-02T09:04:14.971Z,475.03448
2023-05-02T09:09:18.448Z,470.49573
2023-05-02T09:14:20.740Z,484.35088
2023-05-02T09:19:22.316Z,470.49573
2023-05-02T09:24:24.066Z,470.49573
2023-05-02T09:29:25.589Z,479.65217
2023-05-02T09:34:27.053Z,494
2023-05-02T09:39:28.321Z,489.13274
2023-05-02T09:44:29.646Z,479.65217
2023-05-02T09:49:30.959Z,504
2023-05-02T09:54:32.401Z,489.13274
2023-05-02T09:59:33.708Z,484.35088
2023-05-02T10:04:35.113Z,498.95495
2023-05-02T10:09:36.735Z,489.13274
2023-05-02T10:14:38.136Z,494
2023-05-02T10:19:39.415Z,498.95495
2023-05-02T10:24:40.784Z,484.35088
2023-05-02T10:29:42.236Z,498.95495
2023-05-02T10:34:43.647Z,484.35088
2023-05-02T10:39:45.250Z,494
2023-05-02T10:44:46.812Z,509.13761
2023-05-02T10:49:48.381Z,514.37037
2023-05-02T10:54:49.998Z,489.13274
2023-05-02T10:59:51.700Z,514.37037
2023-05-02T11:04:53.379Z,509.13761
2023-05-02T11:09:54.888Z,514.37037
2023-05-02T11:14:56.790Z,509.13761
2023-05-02T11:19:58.398Z,514.37037
2023-05-02T11:25:00.166Z,489.13274
2023-05-02T11:30:01.923Z,525.13208
2023-05-02T11:35:03.434Z,525.13208
2023-05-02T11:40:05.072Z,530.66667
2023-05-02T11:45:06.691Z,530.66667
2023-05-02T11:50:08.269Z,542.05825
2023-05-02T11:55:11.102Z,536.30769
2023-05-02T12:00:13.376Z,509.13761
2023-05-02T12:05:15.037Z,536.30769
2023-05-02T12:10:16.634Z,525.13208
2023-05-02T12:15:18.184Z,530.66667
2023-05-02T12:20:19.762Z,560
2023-05-02T12:25:21.460Z,536.30769
2023-05-02T12:30:22.980Z,519.70093
2023-05-02T12:35:24.792Z,525.13208
2023-05-02T12:40:26.419Z,519.70093
2023-05-02T12:45:27.745Z,504
2023-05-02T12:50:29.046Z,514.37037
2023-05-02T12:55:30.328Z,479.65217
2023-05-02T13:00:31.792Z,470.49573
2023-05-02T13:05:33.116Z,484.35088
2023-05-02T13:10:34.456Z,475.03448
2023-05-02T13:15:35.898Z,475.03448
2023-05-02T13:20:37.255Z,470.49573
2023-05-02T13:25:38.533Z,470.49573
2023-05-02T13:30:40.066Z,479.65217
2023-05-02T13:35:41.361Z,494
2023-05-02T13:40:42.792Z,525.13208
2023-05-02T13:45:44.136Z,553.90099
2023-05-02T13:50:45.682Z,0
2023-05-02T13:55:47.178Z,536.30769
2023-05-02T14:00:48.871Z,475.03448
2023-05-02T14:05:50.435Z,504
2023-05-02T14:10:52.091Z,479.65217
2023-05-02T14:15:54.242Z,479.65217
2023-05-02T14:20:55.626Z,525.13208
2023-05-02T14:25:57.178Z,519.70093
2023-05-02T14:30:58.586Z,494
2023-05-02T14:35:59.898Z,461.64706
2023-05-02T14:41:01.407Z,444.81301
2023-05-02T14:46:02.878Z,393.63504
2023-05-02T14:51:04.238Z,374.76923
2023-05-02T14:56:05.756Z,374.76923
2023-05-02T15:01:07.135Z,432.88889
2023-05-02T15:06:08.675Z,461.64706
2023-05-02T15:11:10.207Z,461.64706
2023-05-02T15:16:11.540Z,461.64706
2023-05-02T15:21:13.029Z,498.95495
2023-05-02T15:26:14.360Z,479.65217
2023-05-02T15:31:15.651Z,444.81301
2023-05-02T15:36:16.937Z,444.81301
2023-05-02T15:41:18.377Z,444.81301
2023-05-02T15:46:19.889Z,444.81301
2023-05-02T15:51:21.374Z,498.95495
2023-05-02T15:56:23.252Z,425.25
2023-05-02T16:01:24.747Z,440.77419
2023-05-02T16:06:26.157Z,440.77419
2023-05-02T16:11:27.489Z,453.09091
2023-05-02T16:16:28.923Z,457.33333
2023-05-02T16:21:30.291Z,479.65217
2023-05-02T16:26:31.856Z,489.13274
2023-05-02T16:31:33.249Z,484.35088
2023-05-02T16:36:34.605Z,514.37037
2023-05-02T16:41:36.036Z,504
2023-05-02T16:46:37.338Z,509.13761
2023-05-02T16:51:38.724Z,519.70093
2023-05-02T16:56:42.029Z,509.13761
2023-05-02T17:01:44.780Z,525.13208
2023-05-02T17:06:46.922Z,498.95495
2023-05-02T17:11:49.118Z,484.35088
2023-05-02T17:16:51.849Z,461.64706
2023-05-02T17:21:54.643Z,466.0339
2023-05-02T17:26:56.971Z,470.49573
2023-05-02T17:31:59.158Z,484.35088
2023-05-02T17:37:00.917Z,461.64706
2023-05-02T17:42:02.573Z,461.64706
2023-05-02T17:47:03.930Z,453.09091
2023-05-02T17:52:05.494Z,448.91803
2023-05-02T17:57:07.188Z,436.8
2023-05-02T18:02:10.265Z,417.84615
2023-05-02T18:07:12.828Z,436.8
2023-05-02T18:12:15.695Z,453.09091
2023-05-02T18:17:18.396Z,390.37681
2023-05-02T18:22:20.914Z,410.66667
2023-05-02T18:27:22.877Z,384
2023-05-02T18:32:24.463Z,403.70149
2023-05-02T18:37:26.049Z,444.81301
2023-05-02T18:42:27.701Z,444.81301
2023-05-02T18:47:29.013Z,407.15789
2023-05-02T18:52:30.304Z,417.84615
2023-05-02T18:57:31.702Z,396.94118
2023-05-02T19:02:33.145Z,387.16547
2023-05-02T19:07:36.204Z,380.87943
2023-05-02T19:12:39.922Z,421.51938
2023-05-02T19:17:42.751Z,417.84615
2023-05-02T19:22:44.309Z,429.03937
2023-05-02T19:27:46.824Z,429.03937
2023-05-02T19:32:48.324Z,410.66667
2023-05-02T19:37:49.833Z,429.03937
2023-05-02T19:42:51.340Z,440.77419
2023-05-02T19:47:52.912Z,432.88889
2023-05-02T19:52:54.591Z,429.03937
2023-05-02T19:57:56.273Z,417.84615
2023-05-02T20:02:57.828Z,429.03937
2023-05-02T20:07:59.414Z,440.77419
2023-05-02T20:13:01.060Z,432.88889
2023-05-02T20:18:02.729Z,421.51938
2023-05-02T20:23:04.329Z,414.22901
2023-05-02T20:28:05.994Z,410.66667
2023-05-02T20:33:15.407Z,440.77419
2023-05-02T20:38:18.142Z,466.0339
2023-05-02T20:43:19.960Z,466.0339
2023-05-02T20:48:22.116Z,436.8
2023-05-02T20:53:24.173Z,436.8
2023-05-02T20:58:25.797Z,429.03937
2023-05-02T21:03:27.353Z,432.88889
2023-05-02T21:08:28.972Z,421.51938
2023-05-02T21:13:30.421Z,432.88889
2023-05-02T21:18:31.683Z,429.03937
2023-05-02T21:23:32.952Z,421.51938
2023-05-02T21:28:34.326Z,417.84615
2023-05-02T21:33:35.616Z,417.84615
2023-05-02T21:38:37.102Z,414.22901
2023-05-02T21:43:38.439Z,414.22901
2023-05-02T21:48:39.866Z,414.22901
2023-05-02T21:53:41.327Z,410.66667
2023-05-02T21:58:42.625Z,407.15789
2023-05-02T22:03:43.915Z,407.15789
2023-05-02T22:08:45.257Z,407.15789
2023-05-02T22:13:46.664Z,407.15789
2023-05-02T22:18:47.987Z,410.66667
2023-05-02T22:23:49.499Z,403.70149
2023-05-02T22:28:51.003Z,407.15789
2023-05-02T22:33:52.570Z,407.15789
2023-05-02T22:38:54.030Z,400.2963
2023-05-02T22:43:55.560Z,403.70149
2023-05-02T22:48:57.111Z,407.15789
2023-05-02T22:53:58.682Z,400.2963
2023-05-02T22:59:00.160Z,393.63504
2023-05-02T23:04:01.681Z,390.37681
2023-05-02T23:09:03.192Z,390.37681
2023-05-02T23:14:05.089Z,390.37681
2023-05-02T23:19:06.669Z,380.87943
2023-05-02T23:24:08.228Z,377.80282
2023-05-02T23:29:10.060Z,414.22901
2023-05-02T23:34:11.607Z,414.22901
2023-05-02T23:39:13.169Z,417.84615
2023-05-02T23:44:14.781Z,421.51938
2023-05-02T23:49:16.436Z,417.84615
2023-05-02T23:54:17.990Z,417.84615
2023-05-02T23:59:19.676Z,417.84615
